createdAt,value
2023-02-22T00:00:50.115Z,28.13
2023-02-22T00:03:24.980Z,30.05
2023-02-22T00:05:55.426Z,34.72
2023-02-22T00:08:26.050Z,23.92
2023-02-22T00:10:54.021Z,26.52
2023-02-22T00:13:23.085Z,29.05
2023-02-22T00:15:52.415Z,27.88
2023-02-22T00:18:20.946Z,27.35
2023-02-22T00:20:49.199Z,29.70
2023-02-22T00:23:20.097Z,37.17
2023-02-22T00:25:49.315Z,37.67
2023-02-22T00:28:19.013Z,32.85
2023-02-22T00:30:48.344Z,28.30
2023-02-22T00:33:17.982Z,33.55
2023-02-22T00:35:47.282Z,32.38
2023-02-22T00:38:18.253Z,32.70
2023-02-22T00:40:46.672Z,29.73
2023-02-22T00:43:15.480Z,30.38
2023-02-22T00:45:43.607Z,28.23
2023-02-22T00:48:12.361Z,26.73
2023-02-22T00:50:41.809Z,25.27
2023-02-22T00:53:10.477Z,28.70
2023-02-22T00:55:39.268Z,27.45
2023-02-22T00:58:08.196Z,25.67
2023-02-22T01:00:39.322Z,25.92
2023-02-22T01:03:08.237Z,29.75
2023-02-22T01:05:37.548Z,27.23
2023-02-22T01:08:09.026Z,35.00
2023-02-22T01:10:38.283Z,22.17
2023-02-22T01:13:09.325Z,37.92
2023-02-22T01:15:39.562Z,42.40
2023-02-22T01:18:08.059Z,34.40
2023-02-22T01:20:36.204Z,26.75
2023-02-22T01:23:08.145Z,43.42
2023-02-22T01:25:36.982Z,36.95
2023-02-22T01:28:07.494Z,27.65
2023-02-22T01:30:37.456Z,30.67
2023-02-22T01:33:08.442Z,30.08
2023-02-22T01:35:38.528Z,26.08
2023-02-22T01:38:08.603Z,25.70
2023-02-22T01:40:39.057Z,26.13
2023-02-22T01:43:18.488Z,30.48
2023-02-22T01:45:54.878Z,24.90
2023-02-22T01:48:29.351Z,23.85
2023-02-22T01:51:00.611Z,27.98
2023-02-22T01:53:34.427Z,32.30
2023-02-22T01:56:04.214Z,31.48
2023-02-22T01:58:35.103Z,31.15
2023-02-22T02:01:03.210Z,30.80
2023-02-22T02:03:34.769Z,32.45
2023-02-22T02:06:05.570Z,35.13
2023-02-22T02:08:42.544Z,33.30
2023-02-22T02:11:11.082Z,31.35
2023-02-22T02:13:39.678Z,27.75
2023-02-22T02:16:08.105Z,27.85
2023-02-22T02:18:36.413Z,32.17
2023-02-22T02:21:37.876Z,34.30
2023-02-22T02:24:53.362Z,38.53
2023-02-22T02:27:24.144Z,34.17
2023-02-22T02:30:29.272Z,44.50
2023-02-22T02:33:02.124Z,33.88
2023-02-22T02:35:39.355Z,31.95
2023-02-22T02:38:18.182Z,23.95
2023-02-22T02:40:50.562Z,22.83
2023-02-22T02:43:26.596Z,38.60
2023-02-22T02:46:00.723Z,31.25
2023-02-22T02:48:34.784Z,30.52
2023-02-22T02:51:06.952Z,34.78
2023-02-22T02:53:38.143Z,33.88
2023-02-22T02:56:07.681Z,28.90
2023-02-22T02:58:35.665Z,31.35
2023-02-22T03:01:05.571Z,36.00
2023-02-22T03:03:52.576Z,25.00
2023-02-22T03:06:52.057Z,27.52
2023-02-22T03:09:36.215Z,29.08
2023-02-22T03:12:13.925Z,29.17
2023-02-22T03:14:50.734Z,25.83
2023-02-22T03:17:25.065Z,41.45
2023-02-22T03:20:00.116Z,38.05
2023-02-22T03:22:32.724Z,34.83
2023-02-22T03:25:07.165Z,43.13
2023-02-22T03:27:43.514Z,24.63
2023-02-22T03:30:17.034Z,23.13
2023-02-22T03:32:49.855Z,34.13
2023-02-22T03:35:23.400Z,37.72
2023-02-22T03:37:56.114Z,37.38
2023-02-22T03:40:28.343Z,31.58
2023-02-22T03:43:03.098Z,30.70
2023-02-22T03:45:33.299Z,34.22
2023-02-22T03:48:06.405Z,33.38
2023-02-22T03:50:38.399Z,28.67
2023-02-22T03:53:07.514Z,29.70
2023-02-22T03:55:35.916Z,43.45
2023-02-22T03:58:08.016Z,31.77
2023-02-22T04:00:36.690Z,38.47
2023-02-22T04:03:05.377Z,30.90
2023-02-22T04:05:33.346Z,34.40
2023-02-22T04:08:02.711Z,31.98
2023-02-22T04:10:30.720Z,47.88
2023-02-22T04:12:58.946Z,32.38
2023-02-22T04:15:27.080Z,31.45
2023-02-22T04:17:55.136Z,27.13
2023-02-22T04:20:25.623Z,35.42
2023-02-22T04:22:54.589Z,25.60
2023-02-22T04:25:24.808Z,32.67
2023-02-22T04:27:52.920Z,32.53
2023-02-22T04:30:21.436Z,34.38
2023-02-22T04:32:49.454Z,33.15
2023-02-22T04:35:17.609Z,21.83
2023-02-22T04:37:45.644Z,34.45
2023-02-22T04:40:14.060Z,29.30
2023-02-22T04:42:43.858Z,31.45
2023-02-22T04:45:12.496Z,33.00
2023-02-22T04:47:40.646Z,32.00
2023-02-22T04:50:11.072Z,39.10
2023-02-22T04:52:39.084Z,34.60
2023-02-22T04:55:07.654Z,37.47
2023-02-22T04:57:35.578Z,28.92
2023-02-22T05:00:05.901Z,36.85
2023-02-22T05:02:33.932Z,25.83
2023-02-22T05:05:02.003Z,36.28
2023-02-22T05:07:30.025Z,28.88
2023-02-22T05:09:57.997Z,48.20
2023-02-22T05:12:28.353Z,27.17
2023-02-22T05:14:56.461Z,30.80
2023-02-22T05:17:25.744Z,35.42
2023-02-22T05:19:53.710Z,28.05
2023-02-22T05:22:21.658Z,24.60
2023-02-22T05:24:49.629Z,29.67
2023-02-22T05:27:17.546Z,22.95
2023-02-22T05:29:45.718Z,26.15
2023-02-22T05:32:13.818Z,24.27
2023-02-22T05:34:43.145Z,25.73
2023-02-22T05:37:11.100Z,28.95
2023-02-22T05:39:39.330Z,29.48
2023-02-22T05:42:07.337Z,33.92
2023-02-22T05:44:35.295Z,33.80
2023-02-22T05:47:03.255Z,38.00
2023-02-22T05:49:31.217Z,37.35
2023-02-22T05:52:00.643Z,31.13
2023-02-22T05:54:28.661Z,29.75
2023-02-22T05:56:56.633Z,37.53
2023-02-22T05:59:24.581Z,55.63
2023-02-22T06:01:52.560Z,29.73
2023-02-22T06:04:20.489Z,34.78
2023-02-22T06:06:48.466Z,19.88
2023-02-22T06:09:17.837Z,36.33
2023-02-22T06:11:45.835Z,23.40
2023-02-22T06:14:13.745Z,29.35
2023-02-22T06:16:41.792Z,35.40
2023-02-22T06:19:09.762Z,23.90
2023-02-22T06:21:37.709Z,24.50
2023-02-22T06:24:06.095Z,38.97
2023-02-22T06:26:36.144Z,29.92
2023-02-22T06:29:06.052Z,35.67
2023-02-22T06:31:34.207Z,37.65
2023-02-22T06:34:02.709Z,43.40
2023-02-22T06:36:31.634Z,40.95
2023-02-22T06:38:59.733Z,35.60
2023-02-22T06:41:27.753Z,46.08
2023-02-22T06:43:57.190Z,36.28
2023-02-22T06:46:25.214Z,32.47
2023-02-22T06:48:53.267Z,44.53
2023-02-22T06:51:22.071Z,42.78
2023-02-22T06:53:50.089Z,37.83
2023-02-22T06:56:18.177Z,39.63
2023-02-22T06:58:46.781Z,39.20
2023-02-22T07:01:16.872Z,45.50
2023-02-22T07:03:45.242Z,45.72
2023-02-22T07:06:13.295Z,38.55
2023-02-22T07:08:41.362Z,38.70
2023-02-22T07:11:10.294Z,44.47
2023-02-22T07:13:38.221Z,42.60
2023-02-22T07:16:06.865Z,40.75
2023-02-22T07:18:36.548Z,39.53
2023-02-22T07:21:04.690Z,42.70
2023-02-22T07:23:32.700Z,35.95
2023-02-22T07:26:01.164Z,56.67
2023-02-22T07:28:29.236Z,43.63
2023-02-22T07:30:57.208Z,39.78
2023-02-22T07:33:25.754Z,50.83
2023-02-22T07:35:55.178Z,61.55
2023-02-22T07:38:23.211Z,32.45
2023-02-22T07:40:51.125Z,31.17
2023-02-22T07:43:21.631Z,35.60
2023-02-22T07:45:52.385Z,38.30
2023-02-22T07:48:22.135Z,32.03
2023-02-22T07:50:50.270Z,40.92
2023-02-22T07:53:21.891Z,36.22
2023-02-22T07:55:51.275Z,45.08
2023-02-22T07:58:21.286Z,40.78
2023-02-22T08:00:49.331Z,36.67
2023-02-22T08:03:19.972Z,40.08
2023-02-22T08:05:50.109Z,49.25
2023-02-22T08:08:20.063Z,40.63
2023-02-22T08:10:49.232Z,40.00
2023-02-22T08:13:17.563Z,38.83
2023-02-22T08:15:47.295Z,33.70
2023-02-22T08:18:17.337Z,44.53
2023-02-22T08:20:47.667Z,47.55
2023-02-22T08:23:17.603Z,51.42
2023-02-22T08:25:47.103Z,52.60
2023-02-22T08:28:17.686Z,45.60
2023-02-22T08:30:45.791Z,68.10
2023-02-22T08:33:16.924Z,55.05
2023-02-22T08:35:45.121Z,59.58
2023-02-22T08:38:20.220Z,57.75
2023-02-22T08:40:50.448Z,48.17
2023-02-22T08:43:19.564Z,36.22
2023-02-22T08:48:51.494Z,39.30
2023-02-22T08:51:19.680Z,49.70
2023-02-22T08:53:47.631Z,38.08
2023-02-22T08:56:16.988Z,38.45
2023-02-22T08:58:45.222Z,35.95
2023-02-22T09:01:19.255Z,39.83
2023-02-22T09:03:50.090Z,39.10
2023-02-22T09:06:18.485Z,43.65
2023-02-22T09:08:46.583Z,49.22
2023-02-22T09:11:16.522Z,47.33
2023-02-22T09:13:44.752Z,31.73
2023-02-22T09:16:13.016Z,41.83
2023-02-22T09:18:44.389Z,40.15
2023-02-22T09:21:13.364Z,29.02
2023-02-22T09:23:41.580Z,32.25
2023-02-22T09:26:10.462Z,35.28
2023-02-22T09:28:39.929Z,35.03
2023-02-22T09:31:08.837Z,34.25
2023-02-22T09:33:36.909Z,37.78
2023-02-22T09:36:06.974Z,39.30
2023-02-22T09:38:35.036Z,29.05
2023-02-22T09:41:15.606Z,40.67
2023-02-22T09:43:50.538Z,36.47
2023-02-22T09:46:29.752Z,30.92
2023-02-22T09:49:03.584Z,37.72
2023-02-22T09:51:38.525Z,30.58
2023-02-22T09:54:17.677Z,34.10
2023-02-22T09:56:49.322Z,38.22
2023-02-22T09:59:24.412Z,36.85
2023-02-22T10:01:59.163Z,45.55
2023-02-22T10:04:41.447Z,39.00
2023-02-22T10:07:18.364Z,37.17
2023-02-22T10:09:48.693Z,35.70
2023-02-22T10:12:25.204Z,37.03
2023-02-22T10:15:27.577Z,34.35
2023-02-22T10:18:05.149Z,43.85
2023-02-22T10:20:45.952Z,41.05
2023-02-22T10:23:22.787Z,36.80
2023-02-22T10:25:55.835Z,38.80
2023-02-22T10:28:31.058Z,37.85
2023-02-22T10:31:05.313Z,46.95
2023-02-22T10:33:38.049Z,37.50
2023-02-22T10:36:07.762Z,47.20
2023-02-22T10:38:36.476Z,29.10
2023-02-22T10:41:20.274Z,49.40
2023-02-22T10:43:48.315Z,40.40
2023-02-22T10:46:22.655Z,45.33
2023-02-22T10:48:54.581Z,45.17
2023-02-22T10:51:22.700Z,62.13
2023-02-22T10:54:00.119Z,45.30
2023-02-22T10:56:29.421Z,47.55
2023-02-22T10:58:59.743Z,42.95
2023-02-22T11:01:37.214Z,42.25
2023-02-22T11:04:12.905Z,41.65
2023-02-22T11:06:42.742Z,42.88
2023-02-22T11:09:14.457Z,43.92
2023-02-22T11:11:45.980Z,32.20
2023-02-22T11:14:26.044Z,41.40
2023-02-22T11:17:07.885Z,40.97
2023-02-22T11:19:38.476Z,48.85
2023-02-22T11:22:14.814Z,37.03
2023-02-22T11:24:50.748Z,47.50
2023-02-22T11:27:31.722Z,37.30
2023-02-22T11:30:21.867Z,42.30
2023-02-22T11:32:55.948Z,44.95
2023-02-22T11:35:40.803Z,41.08
2023-02-22T11:38:17.453Z,48.78
2023-02-22T11:40:46.582Z,48.35
2023-02-22T11:43:17.760Z,46.95
2023-02-22T11:46:03.067Z,42.80
2023-02-22T11:48:40.550Z,37.85
2023-02-22T11:51:27.669Z,41.85
2023-02-22T11:54:25.492Z,40.25
2023-02-22T11:57:06.319Z,44.55
2023-02-22T11:59:44.492Z,48.38
2023-02-22T12:02:57.282Z,35.83
2023-02-22T12:05:40.731Z,51.60
2023-02-22T12:08:21.138Z,42.63
2023-02-22T12:11:03.559Z,34.38
2023-02-22T12:13:46.788Z,41.85
2023-02-22T12:16:22.841Z,32.67
2023-02-22T12:19:08.436Z,43.40
2023-02-22T12:21:41.925Z,41.15
2023-02-22T12:24:16.547Z,50.47
2023-02-22T12:26:49.209Z,28.85
2023-02-22T12:29:26.283Z,38.97
2023-02-22T12:32:01.170Z,48.42
2023-02-22T12:34:36.077Z,40.30
2023-02-22T12:37:16.244Z,42.60
2023-02-22T12:39:54.395Z,39.67
2023-02-22T12:42:31.651Z,34.15
2023-02-22T12:45:08.315Z,41.72
2023-02-22T12:47:43.831Z,41.97
2023-02-22T12:50:21.130Z,42.20
2023-02-22T12:52:57.775Z,34.33
2023-02-22T12:55:27.809Z,47.35
2023-02-22T12:58:02.960Z,38.95
2023-02-22T13:00:38.779Z,37.22
2023-02-22T13:03:30.300Z,30.90
2023-02-22T13:06:24.824Z,44.00
2023-02-22T13:09:05.562Z,37.70
2023-02-22T13:11:43.320Z,46.63
2023-02-22T13:14:31.798Z,41.72
2023-02-22T13:17:06.778Z,38.72
2023-02-22T13:19:45.005Z,40.53
2023-02-22T13:22:21.206Z,38.97
2023-02-22T13:25:02.813Z,31.98
2023-02-22T13:27:39.155Z,29.60
2023-02-22T13:30:16.559Z,30.23
2023-02-22T13:33:05.556Z,31.27
2023-02-22T13:35:48.922Z,40.17
2023-02-22T13:39:01.578Z,45.13
2023-02-22T13:41:59.545Z,31.80
2023-02-22T13:44:59.863Z,38.60
2023-02-22T13:47:57.806Z,43.08
2023-02-22T13:50:40.770Z,37.63
2023-02-22T13:53:15.015Z,46.08
2023-02-22T13:55:51.775Z,47.42
2023-02-22T13:58:22.270Z,45.40
2023-02-22T14:00:53.484Z,43.90
2023-02-22T14:03:41.904Z,45.45
2023-02-22T14:06:12.286Z,45.72
2023-02-22T14:08:42.142Z,37.78
2023-02-22T14:11:45.561Z,41.72
2023-02-22T14:14:19.209Z,37.15
2023-02-22T14:17:28.088Z,44.92
2023-02-22T14:20:31.126Z,39.40
2023-02-22T14:23:27.624Z,43.42
2023-02-22T14:25:56.199Z,38.08
2023-02-22T14:28:42.399Z,39.75
2023-02-22T14:31:29.493Z,46.97
2023-02-22T14:34:11.305Z,41.42
2023-02-22T14:36:55.118Z,45.15
2023-02-22T14:39:32.199Z,42.72
2023-02-22T14:42:06.499Z,40.85
2023-02-22T14:44:38.146Z,39.90
2023-02-22T14:47:15.213Z,47.97
2023-02-22T14:49:48.176Z,53.15
2023-02-22T14:52:24.338Z,44.05
2023-02-22T14:55:17.605Z,47.15
2023-02-22T14:57:59.726Z,40.03
2023-02-22T15:00:32.502Z,39.22
2023-02-22T15:03:02.289Z,43.85
2023-02-22T15:05:38.529Z,40.85
2023-02-22T15:08:09.690Z,34.58
2023-02-22T15:10:43.966Z,33.95
2023-02-22T15:13:18.881Z,39.60
2023-02-22T15:15:49.432Z,38.10
2023-02-22T15:18:29.555Z,40.45
2023-02-22T15:20:59.650Z,39.65
2023-02-22T15:23:33.417Z,43.90
2023-02-22T15:26:01.739Z,41.17
2023-02-22T15:28:32.232Z,34.80
2023-02-22T15:31:17.559Z,36.95
2023-02-22T15:33:47.354Z,46.17
2023-02-22T15:36:17.949Z,45.42
2023-02-22T15:38:51.290Z,39.83
2023-02-22T15:41:28.063Z,48.17
2023-02-22T15:44:17.697Z,51.85
2023-02-22T15:46:50.811Z,42.15
2023-02-22T15:49:24.394Z,43.28
2023-02-22T15:52:05.444Z,38.25
2023-02-22T15:54:42.229Z,46.63
2023-02-22T15:57:10.706Z,41.03
2023-02-22T15:59:44.997Z,48.08
2023-02-22T16:02:32.615Z,48.58
2023-02-22T16:05:06.914Z,56.92
2023-02-22T16:07:39.904Z,48.55
2023-02-22T16:10:10.437Z,42.35
2023-02-22T16:12:38.497Z,39.95
2023-02-22T16:15:18.115Z,48.58
2023-02-22T16:18:00.907Z,45.30
2023-02-22T16:20:34.468Z,41.90
2023-02-22T16:23:23.451Z,44.85
2023-02-22T16:26:04.181Z,47.22
2023-02-22T16:28:35.599Z,40.70
2023-02-22T16:31:04.366Z,45.30
2023-02-22T16:33:33.985Z,40.75
2023-02-22T16:36:09.221Z,43.95
2023-02-22T16:38:39.345Z,53.00
2023-02-22T16:41:08.439Z,51.85
2023-02-22T16:43:38.398Z,41.60
2023-02-22T16:46:07.524Z,42.20
2023-02-22T16:48:38.393Z,39.25
2023-02-22T16:51:21.389Z,44.03
2023-02-22T16:53:50.972Z,45.70
2023-02-22T16:56:22.225Z,55.15
2023-02-22T16:58:53.518Z,60.28
2023-02-22T17:01:23.447Z,51.58
2023-02-22T17:03:54.339Z,46.60
2023-02-22T17:06:25.287Z,46.97
2023-02-22T17:08:53.654Z,37.72
2023-02-22T17:11:22.318Z,44.88
2023-02-22T17:13:53.738Z,54.63
2023-02-22T17:16:22.302Z,38.38
2023-02-22T17:18:51.480Z,46.13
2023-02-22T17:21:19.506Z,44.35
2023-02-22T17:23:49.030Z,45.15
2023-02-22T17:26:21.158Z,56.92
2023-02-22T17:28:50.166Z,37.80
2023-02-22T17:31:23.819Z,39.25
2023-02-22T17:33:53.124Z,46.25
2023-02-22T17:36:25.218Z,43.53
2023-02-22T17:38:55.735Z,39.03
2023-02-22T17:41:27.709Z,46.13
2023-02-22T17:43:58.415Z,41.40
2023-02-22T17:46:30.771Z,46.80
2023-02-22T17:49:11.273Z,49.85
2023-02-22T17:51:42.630Z,45.55
2023-02-22T17:54:12.208Z,48.50
2023-02-22T17:56:41.442Z,47.30
2023-02-22T17:59:12.363Z,74.32
2023-02-22T18:01:40.470Z,69.40
2023-02-22T18:04:08.478Z,57.10
2023-02-22T18:06:38.260Z,52.22
2023-02-22T18:09:10.612Z,55.47
2023-02-22T18:11:42.484Z,53.60
2023-02-22T18:14:12.388Z,46.65
2023-02-22T18:16:41.581Z,48.80
2023-02-22T18:19:09.552Z,55.45
2023-02-22T18:21:38.717Z,43.47
2023-02-22T18:24:07.659Z,47.88
2023-02-22T18:26:35.757Z,56.28
2023-02-22T18:29:05.257Z,42.95
2023-02-22T18:31:33.280Z,44.55
2023-02-22T18:34:01.324Z,44.05
2023-02-22T18:36:29.438Z,53.65
2023-02-22T18:38:58.053Z,44.25
2023-02-22T18:41:26.484Z,43.50
2023-02-22T18:43:57.712Z,50.42
2023-02-22T18:46:27.857Z,45.28
2023-02-22T18:48:56.746Z,49.03
2023-02-22T18:51:26.092Z,50.47
2023-02-22T18:54:00.045Z,54.85
2023-02-22T18:56:30.885Z,49.92
2023-02-22T18:59:00.864Z,39.72
2023-02-22T19:01:33.779Z,42.72
2023-02-22T19:04:01.795Z,37.70
2023-02-22T19:06:29.842Z,43.53
2023-02-22T19:09:01.606Z,55.20
2023-02-22T19:11:29.680Z,41.50
2023-02-22T19:13:59.670Z,44.28
2023-02-22T19:16:28.463Z,46.10
2023-02-22T19:18:58.716Z,47.13
2023-02-22T19:21:30.114Z,34.53
2023-02-22T19:23:58.356Z,42.17
2023-02-22T19:26:29.094Z,43.50
2023-02-22T19:28:58.615Z,56.67
2023-02-22T19:31:31.142Z,41.38
2023-02-22T19:34:03.763Z,41.63
2023-02-22T19:36:31.940Z,38.97
2023-02-22T19:39:05.020Z,44.97
2023-02-22T19:41:33.081Z,41.55
2023-02-22T19:44:02.866Z,33.58
2023-02-22T19:46:32.016Z,45.97
2023-02-22T19:49:02.687Z,48.85
2023-02-22T19:51:31.883Z,42.90
2023-02-22T19:54:02.558Z,40.75
2023-02-22T19:56:32.360Z,48.00
2023-02-22T19:59:06.289Z,53.42
2023-02-22T20:01:38.199Z,48.22
2023-02-22T20:04:10.365Z,40.90
2023-02-22T20:06:44.016Z,51.42
2023-02-22T20:09:15.296Z,50.70
2023-02-22T20:11:43.337Z,42.83
2023-02-22T20:14:18.747Z,44.20
2023-02-22T20:16:47.320Z,52.25
2023-02-22T20:19:18.258Z,54.88
2023-02-22T20:21:46.385Z,41.63
2023-02-22T20:24:20.452Z,45.78
2023-02-22T20:26:50.219Z,52.35
2023-02-22T20:29:19.136Z,55.90
2023-02-22T20:31:53.722Z,50.88
2023-02-22T20:34:25.915Z,42.67
2023-02-22T20:36:54.459Z,45.65
2023-02-22T20:39:22.813Z,46.50
2023-02-22T20:41:55.332Z,56.28
2023-02-22T20:44:23.447Z,49.70
2023-02-22T20:46:51.848Z,53.92
2023-02-22T20:49:23.640Z,54.65
2023-02-22T20:51:54.630Z,54.50
2023-02-22T20:54:23.228Z,43.35
2023-02-22T20:56:53.250Z,45.65
2023-02-22T20:59:21.905Z,50.60
2023-02-22T21:01:50.515Z,52.58
2023-02-22T21:04:19.354Z,39.42
2023-02-22T21:06:49.467Z,49.95
2023-02-22T21:09:20.282Z,49.33
2023-02-22T21:11:49.141Z,51.47
2023-02-22T21:14:19.986Z,46.55
2023-02-22T21:16:49.687Z,57.08
2023-02-22T21:19:25.627Z,56.17
2023-02-22T21:21:57.262Z,45.65
2023-02-22T21:24:27.378Z,46.13
2023-02-22T21:26:55.809Z,47.97
2023-02-22T21:29:23.840Z,47.47
2023-02-22T21:31:54.273Z,44.85
2023-02-22T21:34:22.576Z,43.85
2023-02-22T21:36:52.518Z,44.15
2023-02-22T21:39:22.795Z,36.33
2023-02-22T21:41:52.714Z,45.25
2023-02-22T21:44:22.149Z,41.85
2023-02-22T21:46:50.284Z,53.90
2023-02-22T21:49:22.374Z,43.15
2023-02-22T21:51:51.698Z,57.67
2023-02-22T21:54:21.756Z,47.92
2023-02-22T21:56:50.883Z,50.08
2023-02-22T21:59:20.744Z,47.15
2023-02-22T22:01:50.430Z,49.42
2023-02-22T22:04:20.697Z,45.88
2023-02-22T22:06:50.128Z,54.90
2023-02-22T22:09:23.637Z,54.05
2023-02-22T22:12:01.503Z,50.70
2023-02-22T22:14:29.554Z,42.95
2023-02-22T22:16:58.875Z,48.47
2023-02-22T22:19:27.304Z,46.03
2023-02-22T22:21:55.510Z,48.42
2023-02-22T22:24:24.916Z,39.50
2023-02-22T22:26:55.489Z,43.10
2023-02-22T22:29:26.662Z,42.97
2023-02-22T22:31:54.977Z,41.47
2023-02-22T22:34:24.465Z,46.45
2023-02-22T22:36:52.779Z,50.13
2023-02-22T22:39:21.211Z,38.13
2023-02-22T22:41:49.609Z,37.53
2023-02-22T22:44:22.431Z,47.42
2023-02-22T22:46:53.835Z,48.33
2023-02-22T22:49:23.720Z,44.70
2023-02-22T22:51:53.749Z,42.10
2023-02-22T22:54:23.024Z,55.75
2023-02-22T22:56:51.422Z,56.45
2023-02-22T22:59:21.745Z,48.15
2023-02-22T23:01:52.132Z,55.00
2023-02-22T23:04:21.535Z,50.72
2023-02-22T23:06:52.301Z,49.63
2023-02-22T23:09:23.306Z,49.67
2023-02-22T23:11:53.483Z,54.20
2023-02-22T23:14:25.078Z,50.42
2023-02-22T23:16:56.634Z,50.13
2023-02-22T23:19:24.677Z,44.90
2023-02-22T23:21:53.087Z,49.78
2023-02-22T23:24:21.706Z,60.70
2023-02-22T23:26:50.849Z,54.83
2023-02-22T23:29:20.288Z,55.85
2023-02-22T23:31:50.858Z,59.30
2023-02-22T23:34:21.493Z,48.63
2023-02-22T23:36:54.256Z,53.50
2023-02-22T23:39:23.880Z,38.22
2023-02-22T23:41:53.009Z,42.90
2023-02-22T23:44:21.836Z,44.65
2023-02-22T23:46:55.931Z,52.08
2023-02-22T23:49:26.914Z,46.25
2023-02-22T23:51:55.712Z,44.05
2023-02-22T23:54:24.839Z,48.97
2023-02-22T23:56:56.999Z,54.70
2023-02-22T23:59:26.319Z,47.53
